sensor_id;sensor_type;location;lat;lon;timestamp;temperature;humidity
7502;DHT22;3792;47.740;7.606;2024-01-27T00:00:10;4.30;99.90
7502;DHT22;3792;47.740;7.606;2024-01-27T00:02:41;4.30;99.90
7502;DHT22;3792;47.740;7.606;2024-01-27T00:05:08;4.20;99.90
7502;DHT22;3792;47.740;7.606;2024-01-27T00:07:35;4.20;99.90
7502;DHT22;3792;47.740;7.606;2024-01-27T00:10:02;4.10;99.90
7502;DHT22;3792;47.740;7.606;2024-01-27T00:12:30;4.10;99.90
7502;DHT22;3792;47.740;7.606;2024-01-27T00:14:56;4.20;99.90
7502;DHT22;3792;47.740;7.606;2024-01-27T00:17:23;4.20;99.90
7502;DHT22;3792;47.740;7.606;2024-01-27T00:19:53;4.20;99.90
7502;DHT22;3792;47.740;7.606;2024-01-27T00:22:20;4.20;99.90
7502;DHT22;3792;47.740;7.606;2024-01-27T00:24:47;4.20;99.90
7502;DHT22;3792;47.740;7.606;2024-01-27T00:27:14;4.10;99.90
7502;DHT22;3792;47.740;7.606;2024-01-27T00:29:41;4.00;99.90
7502;DHT22;3792;47.740;7.606;2024-01-27T00:32:08;4.00;99.90
7502;DHT22;3792;47.740;7.606;2024-01-27T00:34:35;4.00;99.90
7502;DHT22;3792;47.740;7.606;2024-01-27T00:37:04;4.00;99.90
7502;DHT22;3792;47.740;7.606;2024-01-27T00:39:31;4.00;99.90
7502;DHT22;3792;47.740;7.606;2024-01-27T00:41:59;3.90;99.90
7502;DHT22;3792;47.740;7.606;2024-01-27T00:44:26;3.90;99.90
7502;DHT22;3792;47.740;7.606;2024-01-27T00:46:53;3.80;99.90
7502;DHT22;3792;47.740;7.606;2024-01-27T00:49:20;3.80;99.90
7502;DHT22;3792;47.740;7.606;2024-01-27T00:51:47;3.80;99.90
7502;DHT22;3792;47.740;7.606;2024-01-27T00:54:15;3.80;99.90
7502;DHT22;3792;47.740;7.606;2024-01-27T00:56:42;3.80;99.90
7502;DHT22;3792;47.740;7.606;2024-01-27T00:59:09;3.80;99.90
7502;DHT22;3792;47.740;7.606;2024-01-27T01:01:36;3.80;99.90
7502;DHT22;3792;47.740;7.606;2024-01-27T01:04:03;3.90;99.90
7502;DHT22;3792;47.740;7.606;2024-01-27T01:06:30;3.90;99.90
7502;DHT22;3792;47.740;7.606;2024-01-27T01:08:57;3.90;99.90
7502;DHT22;3792;47.740;7.606;2024-01-27T01:11:26;3.90;99.90
7502;DHT22;3792;47.740;7.606;2024-01-27T01:13:53;3.80;99.90
7502;DHT22;3792;47.740;7.606;2024-01-27T01:16:20;3.70;99.90
7502;DHT22;3792;47.740;7.606;2024-01-27T01:18:47;3.70;99.90
7502;DHT22;3792;47.740;7.606;2024-01-27T01:21:14;3.80;99.90
7502;DHT22;3792;47.740;7.606;2024-01-27T01:23:41;3.90;99.90
7502;DHT22;3792;47.740;7.606;2024-01-27T01:26:08;3.90;99.90
7502;DHT22;3792;47.740;7.606;2024-01-27T01:28:36;3.80;99.90
7502;DHT22;3792;47.740;7.606;2024-01-27T01:31:06;3.90;99.90
7502;DHT22;3792;47.740;7.606;2024-01-27T01:33:33;3.80;99.90
7502;DHT22;3792;47.740;7.606;2024-01-27T01:36:00;3.80;99.90
7502;DHT22;3792;47.740;7.606;2024-01-27T01:38:27;3.70;99.90
7502;DHT22;3792;47.740;7.606;2024-01-27T01:40:54;3.60;99.90
7502;DHT22;3792;47.740;7.606;2024-01-27T01:43:21;3.60;99.90
7502;DHT22;3792;47.740;7.606;2024-01-27T01:45:49;3.60;99.90
7502;DHT22;3792;47.740;7.606;2024-01-27T01:48:19;3.50;99.90
7502;DHT22;3792;47.740;7.606;2024-01-27T01:50:47;3.50;99.90
7502;DHT22;3792;47.740;7.606;2024-01-27T01:53:14;3.50;99.90
7502;DHT22;3792;47.740;7.606;2024-01-27T01:55:41;3.40;99.90
7502;DHT22;3792;47.740;7.606;2024-01-27T01:58:08;3.50;99.90
7502;DHT22;3792;47.740;7.606;2024-01-27T02:00:35;3.50;99.90
7502;DHT22;3792;47.740;7.606;2024-01-27T02:03:04;3.50;99.90
7502;DHT22;3792;47.740;7.606;2024-01-27T02:05:31;3.50;99.90
7502;DHT22;3792;47.740;7.606;2024-01-27T02:07:58;3.50;99.90
7502;DHT22;3792;47.740;7.606;2024-01-27T02:10:26;3.50;99.90
7502;DHT22;3792;47.740;7.606;2024-01-27T02:12:53;3.40;99.90
7502;DHT22;3792;47.740;7.606;2024-01-27T02:15:20;3.40;99.90
7502;DHT22;3792;47.740;7.606;2024-01-27T02:17:47;3.30;99.90
7502;DHT22;3792;47.740;7.606;2024-01-27T02:20:15;3.30;99.90
7502;DHT22;3792;47.740;7.606;2024-01-27T02:22:42;3.20;99.90
7502;DHT22;3792;47.740;7.606;2024-01-27T02:25:11;3.10;99.90
7502;DHT22;3792;47.740;7.606;2024-01-27T02:27:38;3.10;99.90
7502;DHT22;3792;47.740;7.606;2024-01-27T02:30:06;3.00;99.90
7502;DHT22;3792;47.740;7.606;2024-01-27T02:32:33;2.90;99.90
7502;DHT22;3792;47.740;7.606;2024-01-27T02:35:00;2.90;99.90
7502;DHT22;3792;47.740;7.606;2024-01-27T02:37:27;2.90;99.90
7502;DHT22;3792;47.740;7.606;2024-01-27T02:39:54;2.90;99.90
7502;DHT22;3792;47.740;7.606;2024-01-27T02:42:22;3.00;99.90
7502;DHT22;3792;47.740;7.606;2024-01-27T02:44:50;3.00;99.90
7502;DHT22;3792;47.740;7.606;2024-01-27T02:47:17;3.00;99.90
7502;DHT22;3792;47.740;7.606;2024-01-27T02:49:44;3.00;99.90
7502;DHT22;3792;47.740;7.606;2024-01-27T02:52:11;3.00;99.90
7502;DHT22;3792;47.740;7.606;2024-01-27T02:54:39;3.10;99.90
7502;DHT22;3792;47.740;7.606;2024-01-27T02:57:06;3.10;99.90
7502;DHT22;3792;47.740;7.606;2024-01-27T02:59:35;2.90;99.90
7502;DHT22;3792;47.740;7.606;2024-01-27T03:02:02;2.90;99.90
7502;DHT22;3792;47.740;7.606;2024-01-27T03:04:29;3.00;99.90
7502;DHT22;3792;47.740;7.606;2024-01-27T03:06:56;2.90;99.90
7502;DHT22;3792;47.740;7.606;2024-01-27T03:09:23;2.90;99.90
7502;DHT22;3792;47.740;7.606;2024-01-27T03:11:50;2.80;99.90
7502;DHT22;3792;47.740;7.606;2024-01-27T03:14:17;2.70;99.90
7502;DHT22;3792;47.740;7.606;2024-01-27T03:16:46;2.70;99.90
7502;DHT22;3792;47.740;7.606;2024-01-27T03:19:12;2.70;99.90
7502;DHT22;3792;47.740;7.606;2024-01-27T03:21:40;2.70;99.90
7502;DHT22;3792;47.740;7.606;2024-01-27T03:24:07;2.70;99.90
7502;DHT22;3792;47.740;7.606;2024-01-27T03:26:34;2.70;99.90
7502;DHT22;3792;47.740;7.606;2024-01-27T03:29:01;2.60;99.90
7502;DHT22;3792;47.740;7.606;2024-01-27T03:31:30;2.60;99.90
7502;DHT22;3792;47.740;7.606;2024-01-27T03:33:59;2.70;99.90
7502;DHT22;3792;47.740;7.606;2024-01-27T03:36:26;2.70;99.90
7502;DHT22;3792;47.740;7.606;2024-01-27T03:38:54;2.70;99.90
7502;DHT22;3792;47.740;7.606;2024-01-27T03:41:21;2.70;99.90
7502;DHT22;3792;47.740;7.606;2024-01-27T03:43:48;2.60;99.90
7502;DHT22;3792;47.740;7.606;2024-01-27T03:46:15;2.70;99.90
7502;DHT22;3792;47.740;7.606;2024-01-27T03:48:42;2.60;99.90
7502;DHT22;3792;47.740;7.606;2024-01-27T03:51:10;2.40;99.90
7502;DHT22;3792;47.740;7.606;2024-01-27T03:53:38;2.40;99.90
7502;DHT22;3792;47.740;7.606;2024-01-27T03:56:05;2.40;99.90
7502;DHT22;3792;47.740;7.606;2024-01-27T03:58:32;2.40;99.90
7502;DHT22;3792;47.740;7.606;2024-01-27T04:01:01;2.40;99.90
7502;DHT22;3792;47.740;7.606;2024-01-27T04:03:27;2.40;99.90
7502;DHT22;3792;47.740;7.606;2024-01-27T04:05:55;2.40;99.90
7502;DHT22;3792;47.740;7.606;2024-01-27T04:08:23;2.40;99.90
7502;DHT22;3792;47.740;7.606;2024-01-27T04:10:50;2.30;99.90
7502;DHT22;3792;47.740;7.606;2024-01-27T04:13:17;2.30;99.90
7502;DHT22;3792;47.740;7.606;2024-01-27T04:15:44;2.30;99.90
7502;DHT22;3792;47.740;7.606;2024-01-27T04:18:11;2.20;99.90
7502;DHT22;3792;47.740;7.606;2024-01-27T04:20:38;2.20;99.90
7502;DHT22;3792;47.740;7.606;2024-01-27T04:23:05;2.20;99.90
7502;DHT22;3792;47.740;7.606;2024-01-27T04:25:34;2.20;99.90
7502;DHT22;3792;47.740;7.606;2024-01-27T04:28:01;2.20;99.90
7502;DHT22;3792;47.740;7.606;2024-01-27T04:30:28;2.20;99.90
7502;DHT22;3792;47.740;7.606;2024-01-27T04:32:55;2.20;99.90
7502;DHT22;3792;47.740;7.606;2024-01-27T04:35:22;2.20;99.90
7502;DHT22;3792;47.740;7.606;2024-01-27T04:37:49;2.20;99.90
7502;DHT22;3792;47.740;7.606;2024-01-27T04:40:17;2.20;99.90
7502;DHT22;3792;47.740;7.606;2024-01-27T04:42:45;2.20;99.90
7502;DHT22;3792;47.740;7.606;2024-01-27T04:45:15;2.30;99.90
7502;DHT22;3792;47.740;7.606;2024-01-27T04:47:42;2.20;99.90
7502;DHT22;3792;47.740;7.606;2024-01-27T04:50:09;2.20;99.90
7502;DHT22;3792;47.740;7.606;2024-01-27T04:52:36;2.20;99.90
7502;DHT22;3792;47.740;7.606;2024-01-27T04:55:04;2.20;99.90
7502;DHT22;3792;47.740;7.606;2024-01-27T04:57:31;2.20;99.90
7502;DHT22;3792;47.740;7.606;2024-01-27T04:59:59;2.10;99.90
7502;DHT22;3792;47.740;7.606;2024-01-27T05:02:26;2.10;99.90
7502;DHT22;3792;47.740;7.606;2024-01-27T05:04:53;2.10;99.90
7502;DHT22;3792;47.740;7.606;2024-01-27T05:07:20;2.10;99.90
7502;DHT22;3792;47.740;7.606;2024-01-27T05:09:47;2.10;99.90
7502;DHT22;3792;47.740;7.606;2024-01-27T05:12:14;2.10;99.90
7502;DHT22;3792;47.740;7.606;2024-01-27T05:14:43;2.20;99.90
7502;DHT22;3792;47.740;7.606;2024-01-27T05:17:12;2.20;99.90
7502;DHT22;3792;47.740;7.606;2024-01-27T05:19:39;2.20;99.90
7502;DHT22;3792;47.740;7.606;2024-01-27T05:22:06;2.10;99.90
7502;DHT22;3792;47.740;7.606;2024-01-27T05:24:33;2.00;99.90
7502;DHT22;3792;47.740;7.606;2024-01-27T05:27:00;2.00;99.90
7502;DHT22;3792;47.740;7.606;2024-01-27T05:29:27;1.90;99.90
7502;DHT22;3792;47.740;7.606;2024-01-27T05:31:54;1.80;99.90
7502;DHT22;3792;47.740;7.606;2024-01-27T05:34:23;1.80;99.90
7502;DHT22;3792;47.740;7.606;2024-01-27T05:36:50;1.70;99.90
7502;DHT22;3792;47.740;7.606;2024-01-27T05:39:17;1.80;99.90
7502;DHT22;3792;47.740;7.606;2024-01-27T05:41:44;1.80;99.90
7502;DHT22;3792;47.740;7.606;2024-01-27T05:44:11;1.70;99.90
7502;DHT22;3792;47.740;7.606;2024-01-27T05:46:38;1.70;99.90
7502;DHT22;3792;47.740;7.606;2024-01-27T05:49:05;1.70;99.90
7502;DHT22;3792;47.740;7.606;2024-01-27T05:51:33;1.70;99.90
7502;DHT22;3792;47.740;7.606;2024-01-27T05:54:00;1.70;99.90
7502;DHT22;3792;47.740;7.606;2024-01-27T05:56:28;1.70;99.90
7502;DHT22;3792;47.740;7.606;2024-01-27T05:58:55;1.70;99.90
7502;DHT22;3792;47.740;7.606;2024-01-27T06:01:22;1.70;99.90
7502;DHT22;3792;47.740;7.606;2024-01-27T06:03:49;1.80;99.90
7502;DHT22;3792;47.740;7.606;2024-01-27T06:06:16;1.70;99.90
7502;DHT22;3792;47.740;7.606;2024-01-27T06:08:44;1.70;99.90
7502;DHT22;3792;47.740;7.606;2024-01-27T06:11:11;1.60;99.90
7502;DHT22;3792;47.740;7.606;2024-01-27T06:13:38;1.70;99.90
7502;DHT22;3792;47.740;7.606;2024-01-27T06:16:09;1.60;99.90
7502;DHT22;3792;47.740;7.606;2024-01-27T06:18:36;1.50;99.90
7502;DHT22;3792;47.740;7.606;2024-01-27T06:21:05;1.60;99.90
7502;DHT22;3792;47.740;7.606;2024-01-27T06:23:32;1.60;99.90
7502;DHT22;3792;47.740;7.606;2024-01-27T06:26:04;1.60;99.90
7502;DHT22;3792;47.740;7.606;2024-01-27T06:28:31;1.60;99.90
7502;DHT22;3792;47.740;7.606;2024-01-27T06:30:58;1.50;99.90
7502;DHT22;3792;47.740;7.606;2024-01-27T06:33:25;1.50;99.90
7502;DHT22;3792;47.740;7.606;2024-01-27T06:35:52;1.60;99.90
7502;DHT22;3792;47.740;7.606;2024-01-27T06:38:19;1.60;99.90
7502;DHT22;3792;47.740;7.606;2024-01-27T06:40:46;1.60;99.90
7502;DHT22;3792;47.740;7.606;2024-01-27T06:43:16;1.50;99.90
7502;DHT22;3792;47.740;7.606;2024-01-27T06:45:43;1.50;99.90
7502;DHT22;3792;47.740;7.606;2024-01-27T06:48:11;1.50;99.90
7502;DHT22;3792;47.740;7.606;2024-01-27T06:50:39;1.50;99.90
7502;DHT22;3792;47.740;7.606;2024-01-27T06:53:06;1.60;99.90
7502;DHT22;3792;47.740;7.606;2024-01-27T06:55:36;1.70;99.90
7502;DHT22;3792;47.740;7.606;2024-01-27T06:58:03;1.70;99.90
7502;DHT22;3792;47.740;7.606;2024-01-27T07:00:33;1.70;99.90
7502;DHT22;3792;47.740;7.606;2024-01-27T07:03:00;1.60;99.90
7502;DHT22;3792;47.740;7.606;2024-01-27T07:05:28;1.60;99.90
7502;DHT22;3792;47.740;7.606;2024-01-27T07:07:56;1.60;99.90
7502;DHT22;3792;47.740;7.606;2024-01-27T07:10:23;1.50;99.90
7502;DHT22;3792;47.740;7.606;2024-01-27T07:12:50;1.50;99.90
7502;DHT22;3792;47.740;7.606;2024-01-27T07:15:17;1.50;99.90
7502;DHT22;3792;47.740;7.606;2024-01-27T07:17:48;1.50;99.90
7502;DHT22;3792;47.740;7.606;2024-01-27T07:20:15;1.50;99.90
7502;DHT22;3792;47.740;7.606;2024-01-27T07:22:43;1.50;99.90
7502;DHT22;3792;47.740;7.606;2024-01-27T07:25:11;1.50;99.90
7502;DHT22;3792;47.740;7.606;2024-01-27T07:27:38;1.50;99.90
7502;DHT22;3792;47.740;7.606;2024-01-27T07:30:07;1.50;99.90
7502;DHT22;3792;47.740;7.606;2024-01-27T07:32:35;1.50;99.90
7502;DHT22;3792;47.740;7.606;2024-01-27T07:35:04;1.50;99.90
7502;DHT22;3792;47.740;7.606;2024-01-27T07:37:31;1.60;99.90
7502;DHT22;3792;47.740;7.606;2024-01-27T07:39:59;1.60;99.90
7502;DHT22;3792;47.740;7.606;2024-01-27T07:42:26;1.70;99.90
7502;DHT22;3792;47.740;7.606;2024-01-27T07:44:53;1.60;99.90
7502;DHT22;3792;47.740;7.606;2024-01-27T07:47:20;1.70;99.90
7502;DHT22;3792;47.740;7.606;2024-01-27T07:49:47;1.80;99.90
7502;DHT22;3792;47.740;7.606;2024-01-27T07:52:16;1.90;99.90
7502;DHT22;3792;47.740;7.606;2024-01-27T07:54:44;2.00;99.90
7502;DHT22;3792;47.740;7.606;2024-01-27T07:57:11;2.00;99.90
7502;DHT22;3792;47.740;7.606;2024-01-27T07:59:39;2.10;99.90
7502;DHT22;3792;47.740;7.606;2024-01-27T08:02:06;2.50;99.90
7502;DHT22;3792;47.740;7.606;2024-01-27T08:04:33;3.00;99.90
7502;DHT22;3792;47.740;7.606;2024-01-27T08:07:00;3.10;99.90
7502;DHT22;3792;47.740;7.606;2024-01-27T08:09:37;3.20;99.90
7502;DHT22;3792;47.740;7.606;2024-01-27T08:12:05;3.10;99.90
7502;DHT22;3792;47.740;7.606;2024-01-27T08:14:32;3.00;99.90
7502;DHT22;3792;47.740;7.606;2024-01-27T08:17:01;3.00;99.90
7502;DHT22;3792;47.740;7.606;2024-01-27T08:19:29;3.00;99.90
7502;DHT22;3792;47.740;7.606;2024-01-27T08:21:56;2.90;99.90
7502;DHT22;3792;47.740;7.606;2024-01-27T08:24:23;2.90;99.90
7502;DHT22;3792;47.740;7.606;2024-01-27T08:26:52;2.70;99.90
7502;DHT22;3792;47.740;7.606;2024-01-27T08:29:19;2.80;99.90
7502;DHT22;3792;47.740;7.606;2024-01-27T08:31:46;2.90;99.90
7502;DHT22;3792;47.740;7.606;2024-01-27T08:34:14;2.90;99.90
7502;DHT22;3792;47.740;7.606;2024-01-27T08:36:42;3.00;99.90
7502;DHT22;3792;47.740;7.606;2024-01-27T08:39:09;3.10;99.90
7502;DHT22;3792;47.740;7.606;2024-01-27T08:41:38;3.30;99.90
7502;DHT22;3792;47.740;7.606;2024-01-27T08:44:06;3.60;99.90
7502;DHT22;3792;47.740;7.606;2024-01-27T08:46:51;3.90;99.90
7502;DHT22;3792;47.740;7.606;2024-01-27T08:49:18;4.40;99.90
7502;DHT22;3792;47.740;7.606;2024-01-27T08:51:46;4.80;99.90
7502;DHT22;3792;47.740;7.606;2024-01-27T08:54:13;5.20;99.90
7502;DHT22;3792;47.740;7.606;2024-01-27T08:56:42;5.70;99.90
7502;DHT22;3792;47.740;7.606;2024-01-27T08:59:10;6.10;99.90
7502;DHT22;3792;47.740;7.606;2024-01-27T09:01:37;6.20;99.90
7502;DHT22;3792;47.740;7.606;2024-01-27T09:04:04;6.60;99.90
7502;DHT22;3792;47.740;7.606;2024-01-27T09:06:42;7.10;99.90
7502;DHT22;3792;47.740;7.606;2024-01-27T09:09:09;7.60;99.90
7502;DHT22;3792;47.740;7.606;2024-01-27T09:11:37;7.60;99.90
7502;DHT22;3792;47.740;7.606;2024-01-27T09:14:04;7.90;99.90
7502;DHT22;3792;47.740;7.606;2024-01-27T09:16:34;8.70;99.90
7502;DHT22;3792;47.740;7.606;2024-01-27T09:19:01;9.20;99.90
7502;DHT22;3792;47.740;7.606;2024-01-27T09:21:28;9.40;99.90
7502;DHT22;3792;47.740;7.606;2024-01-27T09:23:58;9.80;99.90
7502;DHT22;3792;47.740;7.606;2024-01-27T09:26:27;10.30;99.90
7502;DHT22;3792;47.740;7.606;2024-01-27T09:28:54;10.40;99.90
7502;DHT22;3792;47.740;7.606;2024-01-27T09:31:21;9.80;99.90
7502;DHT22;3792;47.740;7.606;2024-01-27T09:33:50;10.10;99.90
7502;DHT22;3792;47.740;7.606;2024-01-27T09:36:18;10.30;99.90
7502;DHT22;3792;47.740;7.606;2024-01-27T09:38:46;10.80;99.90
7502;DHT22;3792;47.740;7.606;2024-01-27T09:41:13;11.30;99.90
7502;DHT22;3792;47.740;7.606;2024-01-27T09:43:42;11.50;99.90
7502;DHT22;3792;47.740;7.606;2024-01-27T09:46:10;12.20;99.90
7502;DHT22;3792;47.740;7.606;2024-01-27T09:48:37;12.10;99.90
7502;DHT22;3792;47.740;7.606;2024-01-27T09:51:08;12.50;99.90
7502;DHT22;3792;47.740;7.606;2024-01-27T09:53:35;12.70;99.90
7502;DHT22;3792;47.740;7.606;2024-01-27T09:56:03;12.10;99.90
7502;DHT22;3792;47.740;7.606;2024-01-27T09:58:30;12.20;99.90
7502;DHT22;3792;47.740;7.606;2024-01-27T10:00:59;12.70;99.90
7502;DHT22;3792;47.740;7.606;2024-01-27T10:03:27;12.90;99.90
7502;DHT22;3792;47.740;7.606;2024-01-27T10:05:56;12.90;99.90
7502;DHT22;3792;47.740;7.606;2024-01-27T10:08:25;13.00;99.90
7502;DHT22;3792;47.740;7.606;2024-01-27T10:10:54;13.30;99.90
7502;DHT22;3792;47.740;7.606;2024-01-27T10:13:22;13.50;99.90
7502;DHT22;3792;47.740;7.606;2024-01-27T10:16:00;13.60;99.90
7502;DHT22;3792;47.740;7.606;2024-01-27T10:18:28;13.50;99.90
7502;DHT22;3792;47.740;7.606;2024-01-27T10:20:55;13.10;99.90
7502;DHT22;3792;47.740;7.606;2024-01-27T10:23:22;13.20;99.90
7502;DHT22;3792;47.740;7.606;2024-01-27T10:25:51;13.10;99.90
7502;DHT22;3792;47.740;7.606;2024-01-27T10:28:19;12.10;99.90
7502;DHT22;3792;47.740;7.606;2024-01-27T10:30:46;12.50;99.90
7502;DHT22;3792;47.740;7.606;2024-01-27T10:33:14;13.20;99.90
7502;DHT22;3792;47.740;7.606;2024-01-27T10:35:41;13.40;99.90
7502;DHT22;3792;47.740;7.606;2024-01-27T10:38:09;12.80;99.90
7502;DHT22;3792;47.740;7.606;2024-01-27T10:40:36;12.30;99.90
7502;DHT22;3792;47.740;7.606;2024-01-27T10:43:06;12.50;99.90
7502;DHT22;3792;47.740;7.606;2024-01-27T10:45:36;12.70;99.90
7502;DHT22;3792;47.740;7.606;2024-01-27T10:48:04;12.80;99.90
7502;DHT22;3792;47.740;7.606;2024-01-27T10:50:35;13.00;99.90
7502;DHT22;3792;47.740;7.606;2024-01-27T10:53:04;13.70;99.90
7502;DHT22;3792;47.740;7.606;2024-01-27T10:55:33;13.60;99.90
7502;DHT22;3792;47.740;7.606;2024-01-27T10:58:02;14.20;99.90
7502;DHT22;3792;47.740;7.606;2024-01-27T11:00:31;14.80;99.90
7502;DHT22;3792;47.740;7.606;2024-01-27T11:03:01;15.40;99.90
7502;DHT22;3792;47.740;7.606;2024-01-27T11:05:30;15.90;99.90
7502;DHT22;3792;47.740;7.606;2024-01-27T11:07:58;16.30;99.30
7502;DHT22;3792;47.740;7.606;2024-01-27T11:10:26;16.00;99.20
7502;DHT22;3792;47.740;7.606;2024-01-27T11:13:00;16.20;98.00
7502;DHT22;3792;47.740;7.606;2024-01-27T11:15:29;16.70;97.30
7502;DHT22;3792;47.740;7.606;2024-01-27T11:17:58;16.90;97.50
7502;DHT22;3792;47.740;7.606;2024-01-27T11:20:25;16.70;97.20
7502;DHT22;3792;47.740;7.606;2024-01-27T11:22:54;16.60;96.60
7502;DHT22;3792;47.740;7.606;2024-01-27T11:25:23;16.30;96.00
7502;DHT22;3792;47.740;7.606;2024-01-27T11:27:50;16.10;96.00
7502;DHT22;3792;47.740;7.606;2024-01-27T11:30:37;16.00;96.20
7502;DHT22;3792;47.740;7.606;2024-01-27T11:33:05;16.50;96.00
7502;DHT22;3792;47.740;7.606;2024-01-27T11:35:34;16.80;95.20
7502;DHT22;3792;47.740;7.606;2024-01-27T11:38:00;16.70;93.70
7502;DHT22;3792;47.740;7.606;2024-01-27T11:40:27;16.90;94.00
7502;DHT22;3792;47.740;7.606;2024-01-27T11:42:55;16.70;95.10
7502;DHT22;3792;47.740;7.606;2024-01-27T11:45:23;17.00;94.60
7502;DHT22;3792;47.740;7.606;2024-01-27T11:47:51;17.00;94.20
7502;DHT22;3792;47.740;7.606;2024-01-27T11:50:18;16.70;94.80
7502;DHT22;3792;47.740;7.606;2024-01-27T11:52:48;16.90;94.70
7502;DHT22;3792;47.740;7.606;2024-01-27T11:55:16;16.90;93.50
7502;DHT22;3792;47.740;7.606;2024-01-27T11:57:44;16.90;94.80
7502;DHT22;3792;47.740;7.606;2024-01-27T12:00:12;17.50;94.20
7502;DHT22;3792;47.740;7.606;2024-01-27T12:02:39;17.30;94.10
7502;DHT22;3792;47.740;7.606;2024-01-27T12:05:08;17.50;93.70
7502;DHT22;3792;47.740;7.606;2024-01-27T12:07:36;17.60;94.00
7502;DHT22;3792;47.740;7.606;2024-01-27T12:10:04;17.70;94.20
7502;DHT22;3792;47.740;7.606;2024-01-27T12:12:32;17.90;93.20
7502;DHT22;3792;47.740;7.606;2024-01-27T12:14:59;17.70;92.70
7502;DHT22;3792;47.740;7.606;2024-01-27T12:17:28;17.80;93.70
7502;DHT22;3792;47.740;7.606;2024-01-27T12:19:55;18.00;93.20
7502;DHT22;3792;47.740;7.606;2024-01-27T12:22:24;17.90;93.00
7502;DHT22;3792;47.740;7.606;2024-01-27T12:24:52;17.80;93.70
7502;DHT22;3792;47.740;7.606;2024-01-27T12:27:19;17.40;93.50
7502;DHT22;3792;47.740;7.606;2024-01-27T12:29:47;17.70;93.40
7502;DHT22;3792;47.740;7.606;2024-01-27T12:32:14;17.50;93.70
7502;DHT22;3792;47.740;7.606;2024-01-27T12:34:41;17.70;93.50
7502;DHT22;3792;47.740;7.606;2024-01-27T12:37:11;17.70;93.40
7502;DHT22;3792;47.740;7.606;2024-01-27T12:39:41;17.40;93.20
7502;DHT22;3792;47.740;7.606;2024-01-27T12:42:09;17.10;93.60
7502;DHT22;3792;47.740;7.606;2024-01-27T12:44:36;17.00;93.70
7502;DHT22;3792;47.740;7.606;2024-01-27T12:47:03;16.90;93.90
7502;DHT22;3792;47.740;7.606;2024-01-27T12:49:30;16.90;94.00
7502;DHT22;3792;47.740;7.606;2024-01-27T12:51:57;16.80;94.30
7502;DHT22;3792;47.740;7.606;2024-01-27T12:54:24;16.90;94.70
7502;DHT22;3792;47.740;7.606;2024-01-27T12:56:53;17.20;94.10
7502;DHT22;3792;47.740;7.606;2024-01-27T12:59:20;16.70;94.20
7502;DHT22;3792;47.740;7.606;2024-01-27T13:01:47;16.50;94.60
7502;DHT22;3792;47.740;7.606;2024-01-27T13:04:14;16.60;94.00
7502;DHT22;3792;47.740;7.606;2024-01-27T13:06:41;16.30;94.30
7502;DHT22;3792;47.740;7.606;2024-01-27T13:09:08;16.80;94.40
7502;DHT22;3792;47.740;7.606;2024-01-27T13:11:37;17.00;93.00
7502;DHT22;3792;47.740;7.606;2024-01-27T13:14:06;17.00;93.30
7502;DHT22;3792;47.740;7.606;2024-01-27T13:16:35;17.10;93.30
7502;DHT22;3792;47.740;7.606;2024-01-27T13:19:02;17.30;93.10
7502;DHT22;3792;47.740;7.606;2024-01-27T13:21:29;17.20;92.80
7502;DHT22;3792;47.740;7.606;2024-01-27T13:23:56;16.90;93.10
7502;DHT22;3792;47.740;7.606;2024-01-27T13:26:23;17.10;93.00
7502;DHT22;3792;47.740;7.606;2024-01-27T13:28:50;16.80;93.50
7502;DHT22;3792;47.740;7.606;2024-01-27T13:31:18;17.00;93.20
7502;DHT22;3792;47.740;7.606;2024-01-27T13:33:45;17.20;93.30
7502;DHT22;3792;47.740;7.606;2024-01-27T13:36:12;17.10;94.20
7502;DHT22;3792;47.740;7.606;2024-01-27T13:38:39;17.30;94.10
7502;DHT22;3792;47.740;7.606;2024-01-27T13:41:06;17.80;94.60
7502;DHT22;3792;47.740;7.606;2024-01-27T13:43:33;18.50;94.10
7502;DHT22;3792;47.740;7.606;2024-01-27T13:46:00;18.70;93.90
7502;DHT22;3792;47.740;7.606;2024-01-27T13:48:29;19.00;93.20
7502;DHT22;3792;47.740;7.606;2024-01-27T13:50:56;19.00;92.00
7502;DHT22;3792;47.740;7.606;2024-01-27T13:53:23;18.90;92.10
7502;DHT22;3792;47.740;7.606;2024-01-27T13:55:50;19.00;91.80
7502;DHT22;3792;47.740;7.606;2024-01-27T13:58:17;19.00;92.60
7502;DHT22;3792;47.740;7.606;2024-01-27T14:00:43;19.00;91.10
7502;DHT22;3792;47.740;7.606;2024-01-27T14:03:11;18.70;90.90
7502;DHT22;3792;47.740;7.606;2024-01-27T14:05:39;18.80;91.50
7502;DHT22;3792;47.740;7.606;2024-01-27T14:08:08;18.50;92.60
7502;DHT22;3792;47.740;7.606;2024-01-27T14:10:36;18.50;92.60
7502;DHT22;3792;47.740;7.606;2024-01-27T14:13:03;18.50;92.60
7502;DHT22;3792;47.740;7.606;2024-01-27T14:15:34;18.10;92.90
7502;DHT22;3792;47.740;7.606;2024-01-27T14:18:01;17.20;92.10
7502;DHT22;3792;47.740;7.606;2024-01-27T14:20:29;16.90;93.60
7502;DHT22;3792;47.740;7.606;2024-01-27T14:22:59;16.90;93.90
7502;DHT22;3792;47.740;7.606;2024-01-27T14:25:26;17.00;93.80
7502;DHT22;3792;47.740;7.606;2024-01-27T14:27:52;16.90;93.70
7502;DHT22;3792;47.740;7.606;2024-01-27T14:30:19;17.10;93.80
7502;DHT22;3792;47.740;7.606;2024-01-27T14:32:46;17.00;94.10
7502;DHT22;3792;47.740;7.606;2024-01-27T14:35:13;16.60;93.80
7502;DHT22;3792;47.740;7.606;2024-01-27T14:37:40;16.60;94.40
7502;DHT22;3792;47.740;7.606;2024-01-27T14:40:10;16.80;93.70
7502;DHT22;3792;47.740;7.606;2024-01-27T14:42:39;16.70;94.10
7502;DHT22;3792;47.740;7.606;2024-01-27T14:45:08;16.80;93.80
7502;DHT22;3792;47.740;7.606;2024-01-27T14:47:35;16.60;93.50
7502;DHT22;3792;47.740;7.606;2024-01-27T14:50:02;16.40;93.80
7502;DHT22;3792;47.740;7.606;2024-01-27T14:52:31;16.10;93.10
7502;DHT22;3792;47.740;7.606;2024-01-27T14:54:58;16.10;94.60
7502;DHT22;3792;47.740;7.606;2024-01-27T14:57:27;15.10;94.80
7502;DHT22;3792;47.740;7.606;2024-01-27T14:59:54;14.90;95.40
7502;DHT22;3792;47.740;7.606;2024-01-27T15:02:21;15.40;95.50
7502;DHT22;3792;47.740;7.606;2024-01-27T15:04:49;15.80;95.50
7502;DHT22;3792;47.740;7.606;2024-01-27T15:07:16;16.30;94.50
7502;DHT22;3792;47.740;7.606;2024-01-27T15:09:43;16.50;94.50
7502;DHT22;3792;47.740;7.606;2024-01-27T15:12:10;16.80;94.00
7502;DHT22;3792;47.740;7.606;2024-01-27T15:14:39;16.70;93.60
7502;DHT22;3792;47.740;7.606;2024-01-27T15:17:06;16.40;94.00
7502;DHT22;3792;47.740;7.606;2024-01-27T15:19:34;16.50;94.50
7502;DHT22;3792;47.740;7.606;2024-01-27T15:22:01;16.60;93.50
7502;DHT22;3792;47.740;7.606;2024-01-27T15:24:28;16.70;93.40
7502;DHT22;3792;47.740;7.606;2024-01-27T15:26:59;16.80;93.50
7502;DHT22;3792;47.740;7.606;2024-01-27T15:29:26;17.10;93.90
7502;DHT22;3792;47.740;7.606;2024-01-27T15:31:54;17.10;93.60
7502;DHT22;3792;47.740;7.606;2024-01-27T15:34:21;16.70;93.70
7502;DHT22;3792;47.740;7.606;2024-01-27T15:36:48;15.70;93.40
7502;DHT22;3792;47.740;7.606;2024-01-27T15:39:15;14.50;94.70
7502;DHT22;3792;47.740;7.606;2024-01-27T15:41:42;13.50;96.70
7502;DHT22;3792;47.740;7.606;2024-01-27T15:44:09;12.70;98.70
7502;DHT22;3792;47.740;7.606;2024-01-27T15:46:36;12.20;99.90
7502;DHT22;3792;47.740;7.606;2024-01-27T15:49:05;11.60;99.90
7502;DHT22;3792;47.740;7.606;2024-01-27T15:51:32;11.00;99.90
7502;DHT22;3792;47.740;7.606;2024-01-27T15:53:59;10.70;99.90
7502;DHT22;3792;47.740;7.606;2024-01-27T15:56:26;10.30;99.90
7502;DHT22;3792;47.740;7.606;2024-01-27T15:58:53;10.00;99.90
7502;DHT22;3792;47.740;7.606;2024-01-27T16:04:18;9.60;99.90
7502;DHT22;3792;47.740;7.606;2024-01-27T16:06:45;9.40;99.90
7502;DHT22;3792;47.740;7.606;2024-01-27T16:09:14;9.30;99.90
7502;DHT22;3792;47.740;7.606;2024-01-27T16:11:41;9.20;99.90
7502;DHT22;3792;47.740;7.606;2024-01-27T16:14:08;9.30;99.90
7502;DHT22;3792;47.740;7.606;2024-01-27T16:16:36;9.30;99.90